createdAt,value
2017-11-16T00:00:38.542Z,1015.22
2017-11-16T00:01:18.836Z,1015.22
2017-11-16T00:01:59.263Z,1015.2
2017-11-16T00:02:39.803Z,1015.23
2017-11-16T00:03:20.375Z,1015.23
2017-11-16T00:04:00.707Z,1015.27
2017-11-16T00:04:41.187Z,1015.25
2017-11-16T00:05:21.570Z,1015.22
2017-11-16T00:06:01.984Z,1015.26
2017-11-16T00:06:42.368Z,1015.3
2017-11-16T00:07:22.784Z,1015.25
2017-11-16T00:08:03.180Z,1015.27
2017-11-16T00:08:43.664Z,1015.28
2017-11-16T00:09:24.078Z,1015.3
2017-11-16T00:10:04.446Z,1015.26
2017-11-16T00:10:44.878Z,1015.28
2017-11-16T00:11:25.233Z,1015.26
2017-11-16T00:12:05.664Z,1015.25
2017-11-16T00:12:46.069Z,1015.22
2017-11-16T00:13:26.578Z,1015.26
2017-11-16T00:14:06.926Z,1015.22
2017-11-16T00:14:47.290Z,1015.22
2017-11-16T00:15:27.754Z,1015.22
2017-11-16T00:16:08.253Z,1015.18
2017-11-16T00:16:48.543Z,1015.23
2017-11-16T00:17:28.977Z,1015.16
2017-11-16T00:18:09.457Z,1015.19
2017-11-16T00:18:49.896Z,1015.23
2017-11-16T00:19:30.318Z,1015.2
2017-11-16T00:20:10.747Z,1015.2
2017-11-16T00:20:51.296Z,1015.13
2017-11-16T00:21:31.573Z,1015.19
2017-11-16T00:22:11.915Z,1015.2
2017-11-16T00:22:52.409Z,1015.17
2017-11-16T00:23:32.937Z,1015.14
2017-11-16T00:24:13.262Z,1015.12
2017-11-16T00:24:53.697Z,1015.12
2017-11-16T00:25:34.124Z,1015.1
2017-11-16T00:26:14.599Z,1015.08
2017-11-16T00:26:54.977Z,1015.07
2017-11-16T00:27:35.470Z,1015.07
2017-11-16T00:28:15.909Z,1015.09
2017-11-16T00:28:56.266Z,1015.1
2017-11-16T00:29:36.751Z,1015.03
2017-11-16T00:30:17.044Z,1015.07
2017-11-16T00:30:57.517Z,1015.06
2017-11-16T00:31:38.010Z,1015.02
2017-11-16T00:32:18.431Z,1015.02
2017-11-16T00:32:58.885Z,1015.05
2017-11-16T00:33:41.928Z,1015.06
2017-11-16T00:34:22.319Z,1015.07
2017-11-16T00:35:02.775Z,1015.03
2017-11-16T00:35:43.224Z,1015
2017-11-16T00:36:23.690Z,1015.03
2017-11-16T00:37:04.028Z,1014.96
2017-11-16T00:37:44.442Z,1014.99
2017-11-16T00:38:24.924Z,1014.97
2017-11-16T00:39:05.269Z,1014.98
2017-11-16T00:39:45.732Z,1014.98
2017-11-16T00:40:26.071Z,1015.01
2017-11-16T00:41:06.521Z,1015
2017-11-16T00:41:46.941Z,1015.04
2017-11-16T00:42:27.427Z,1015.01
2017-11-16T00:43:07.886Z,1015.03
2017-11-16T00:43:48.287Z,1015.01
2017-11-16T00:44:28.696Z,1015.08
2017-11-16T00:45:09.067Z,1015.03
2017-11-16T00:45:49.465Z,1015.03
2017-11-16T00:46:29.977Z,1014.98
2017-11-16T00:47:10.450Z,1014.99
2017-11-16T00:47:50.786Z,1015.01
2017-11-16T00:48:31.247Z,1015
2017-11-16T00:49:11.781Z,1015.05
2017-11-16T00:49:52.210Z,1014.98
2017-11-16T00:50:32.648Z,1014.97
2017-11-16T00:51:13.041Z,1014.97
2017-11-16T00:51:53.492Z,1015.01
2017-11-16T00:52:33.807Z,1015
2017-11-16T00:53:14.201Z,1014.94
2017-11-16T00:53:54.640Z,1014.94
2017-11-16T00:54:35.003Z,1014.98
2017-11-16T00:55:15.471Z,1014.98
2017-11-16T00:55:55.841Z,1014.98
2017-11-16T00:56:36.269Z,1014.96
2017-11-16T00:57:16.686Z,1015.02
2017-11-16T00:57:57.120Z,1015.01
2017-11-16T00:58:37.485Z,1014.99
2017-11-16T00:59:18.172Z,1014.97
2017-11-16T00:59:58.641Z,1014.93
2017-11-16T01:00:38.940Z,1014.96
2017-11-16T01:01:19.435Z,1014.97
2017-11-16T01:01:59.858Z,1014.94
2017-11-16T01:02:40.264Z,1014.92
2017-11-16T01:03:20.728Z,1014.93
2017-11-16T01:04:01.032Z,1014.92
2017-11-16T01:04:41.411Z,1014.88
2017-11-16T01:05:21.843Z,1014.88
2017-11-16T01:06:02.871Z,1014.91
2017-11-16T01:06:43.227Z,1014.86
2017-11-16T01:07:23.687Z,1014.88
2017-11-16T01:08:04.049Z,1014.85
2017-11-16T01:08:44.740Z,1014.87
2017-11-16T01:09:25.050Z,1014.87
2017-11-16T01:10:05.434Z,1014.87
2017-11-16T01:10:45.856Z,1014.89
2017-11-16T01:11:26.838Z,1014.87
2017-11-16T01:12:07.042Z,1014.9
2017-11-16T01:12:47.527Z,1014.89
2017-11-16T01:13:27.881Z,1014.91
2017-11-16T01:14:08.249Z,1014.9
2017-11-16T01:14:48.734Z,1014.91
2017-11-16T01:15:29.149Z,1014.87
2017-11-16T01:16:09.552Z,1014.9
2017-11-16T01:16:50.053Z,1014.89
2017-11-16T01:17:30.358Z,1014.83
2017-11-16T01:18:10.767Z,1014.9
2017-11-16T01:18:51.161Z,1014.88
2017-11-16T01:19:31.572Z,1014.83
2017-11-16T01:20:11.983Z,1014.87
2017-11-16T01:20:52.393Z,1014.86
2017-11-16T01:21:32.898Z,1014.8
2017-11-16T01:22:13.228Z,1014.81
2017-11-16T01:22:53.684Z,1014.83
2017-11-16T01:23:34.117Z,1014.82
2017-11-16T01:24:14.459Z,1014.82
2017-11-16T01:24:54.803Z,1014.8
2017-11-16T01:25:35.281Z,1014.8
2017-11-16T01:26:15.613Z,1014.77
2017-11-16T01:26:56.082Z,1014.74
2017-11-16T01:27:36.529Z,1014.76
2017-11-16T01:28:16.905Z,1014.82
2017-11-16T01:28:57.363Z,1014.78
2017-11-16T01:29:37.711Z,1014.77
2017-11-16T01:30:18.213Z,1014.81
2017-11-16T01:30:58.517Z,1014.77
2017-11-16T01:31:38.987Z,1014.78
2017-11-16T01:32:19.417Z,1014.82
2017-11-16T01:32:59.816Z,1014.82
2017-11-16T01:33:40.211Z,1014.8
2017-11-16T01:34:20.653Z,1014.76
2017-11-16T01:35:00.984Z,1014.79
2017-11-16T01:35:41.425Z,1014.78
2017-11-16T01:36:21.881Z,1014.74
2017-11-16T01:37:02.284Z,1014.75
2017-11-16T01:37:42.751Z,1014.77
2017-11-16T01:38:23.179Z,1014.72
2017-11-16T01:39:03.580Z,1014.74
2017-11-16T01:39:44.029Z,1014.69
2017-11-16T01:40:24.511Z,1014.68
2017-11-16T01:41:04.894Z,1014.71
2017-11-16T01:41:45.377Z,1014.64
2017-11-16T01:42:25.706Z,1014.65
2017-11-16T01:43:06.084Z,1014.64
2017-11-16T01:43:46.544Z,1014.66
2017-11-16T01:44:26.920Z,1014.64
2017-11-16T01:45:07.304Z,1014.67
2017-11-16T01:45:47.698Z,1014.67
2017-11-16T01:46:28.120Z,1014.67
2017-11-16T01:47:08.607Z,1014.63
2017-11-16T01:47:48.999Z,1014.66
2017-11-16T01:48:29.441Z,1014.61
2017-11-16T01:49:09.756Z,1014.62
2017-11-16T01:49:50.136Z,1014.64
2017-11-16T01:50:30.580Z,1014.69
2017-11-16T01:51:11.067Z,1014.67
2017-11-16T01:51:51.479Z,1014.67
2017-11-16T01:52:31.824Z,1014.69
2017-11-16T01:53:12.220Z,1014.7
2017-11-16T01:53:52.641Z,1014.73
2017-11-16T01:54:33.057Z,1014.73
2017-11-16T01:55:13.488Z,1014.71
2017-11-16T01:55:53.932Z,1014.73
2017-11-16T01:56:34.494Z,1014.7
2017-11-16T01:57:15.008Z,1014.65
2017-11-16T01:57:55.330Z,1014.65
2017-11-16T01:58:35.713Z,1014.7
2017-11-16T01:59:16.051Z,1014.66
2017-11-16T01:59:56.605Z,1014.67
2017-11-16T02:00:37.028Z,1014.69
2017-11-16T02:01:17.647Z,1014.71
2017-11-16T02:01:58.050Z,1014.73
2017-11-16T02:02:38.541Z,1014.77
2017-11-16T02:03:18.831Z,1014.75
2017-11-16T02:03:59.251Z,1014.75
2017-11-16T02:04:39.785Z,1014.83
2017-11-16T02:05:20.164Z,1014.78
2017-11-16T02:06:00.597Z,1014.74
2017-11-16T02:06:41.108Z,1014.76
2017-11-16T02:07:21.369Z,1014.76
2017-11-16T02:08:01.879Z,1014.77
2017-11-16T02:08:42.267Z,1014.74
2017-11-16T02:09:22.717Z,1014.73
2017-11-16T02:10:03.089Z,1014.74
2017-11-16T02:10:43.466Z,1014.7
2017-11-16T02:11:23.828Z,1014.68
2017-11-16T02:12:04.337Z,1014.65
2017-11-16T02:12:44.725Z,1014.68
2017-11-16T02:13:25.167Z,1014.63
2017-11-16T02:14:05.570Z,1014.63
2017-11-16T02:14:45.871Z,1014.65
2017-11-16T02:15:26.249Z,1014.62
2017-11-16T02:16:06.713Z,1014.59
2017-11-16T02:16:47.188Z,1014.63
2017-11-16T02:17:27.592Z,1014.66
2017-11-16T02:18:08.037Z,1014.63
2017-11-16T02:18:48.413Z,1014.62
2017-11-16T02:19:28.834Z,1014.61
2017-11-16T02:20:09.177Z,1014.64
2017-11-16T02:20:49.820Z,1014.66
2017-11-16T02:21:30.215Z,1014.64
2017-11-16T02:22:10.567Z,1014.64
2017-11-16T02:22:50.989Z,1014.62
2017-11-16T02:23:31.465Z,1014.6
2017-11-16T02:24:12.009Z,1014.65
2017-11-16T02:24:52.432Z,1014.68
2017-11-16T02:25:32.933Z,1014.64
2017-11-16T02:26:13.429Z,1014.6
2017-11-16T02:26:53.758Z,1014.61
2017-11-16T02:27:34.205Z,1014.65
2017-11-16T02:28:14.587Z,1014.61
2017-11-16T02:28:54.996Z,1014.62
2017-11-16T02:29:35.428Z,1014.63
2017-11-16T02:30:15.850Z,1014.61
2017-11-16T02:30:56.268Z,1014.61
2017-11-16T02:31:36.692Z,1014.62
2017-11-16T02:32:17.011Z,1014.57
2017-11-16T02:32:57.407Z,1014.58
2017-11-16T02:33:38.014Z,1014.56
2017-11-16T02:34:18.520Z,1014.56
2017-11-16T02:34:58.980Z,1014.57
2017-11-16T02:35:39.382Z,1014.56
2017-11-16T02:36:19.869Z,1014.6
2017-11-16T02:37:00.312Z,1014.57
2017-11-16T02:37:40.633Z,1014.61
2017-11-16T02:38:21.039Z,1014.63
2017-11-16T02:39:01.437Z,1014.63
2017-11-16T02:39:41.879Z,1014.61
2017-11-16T02:40:22.228Z,1014.63
2017-11-16T02:41:02.555Z,1014.62
2017-11-16T02:41:43.000Z,1014.62
2017-11-16T02:42:23.417Z,1014.57
2017-11-16T02:43:03.894Z,1014.57
2017-11-16T02:43:44.283Z,1014.58
2017-11-16T02:44:24.659Z,1014.57
2017-11-16T02:45:05.069Z,1014.57
2017-11-16T02:45:45.545Z,1014.59
2017-11-16T02:46:25.908Z,1014.53
2017-11-16T02:47:06.426Z,1014.54
2017-11-16T02:47:46.744Z,1014.49
2017-11-16T02:48:27.137Z,1014.5
2017-11-16T02:49:07.650Z,1014.49
2017-11-16T02:49:47.959Z,1014.48
2017-11-16T02:50:28.509Z,1014.49
2017-11-16T02:51:08.812Z,1014.48
2017-11-16T02:51:49.266Z,1014.47
2017-11-16T02:52:29.718Z,1014.49
2017-11-16T02:53:10.173Z,1014.48
2017-11-16T02:53:50.641Z,1014.5
2017-11-16T02:54:31.064Z,1014.44
2017-11-16T02:55:11.434Z,1014.48
2017-11-16T02:55:51.920Z,1014.42
2017-11-16T02:56:32.317Z,1014.43
2017-11-16T02:57:12.754Z,1014.4
2017-11-16T02:57:53.108Z,1014.44
2017-11-16T02:58:33.632Z,1014.43
2017-11-16T02:59:13.995Z,1014.45
2017-11-16T02:59:54.415Z,1014.44
2017-11-16T03:00:34.705Z,1014.42
2017-11-16T03:01:15.213Z,1014.42
2017-11-16T03:01:55.594Z,1014.46
2017-11-16T03:02:35.917Z,1014.44
2017-11-16T03:03:16.451Z,1014.43
2017-11-16T03:03:56.701Z,1014.42
2017-11-16T03:04:37.224Z,1014.41
2017-11-16T03:05:17.744Z,1014.41
2017-11-16T03:05:58.087Z,1014.4
2017-11-16T03:06:38.598Z,1014.4
2017-11-16T03:07:18.993Z,1014.42
2017-11-16T03:07:59.353Z,1014.41
2017-11-16T03:08:39.874Z,1014.45
2017-11-16T03:09:20.267Z,1014.44
2017-11-16T03:10:00.773Z,1014.45
2017-11-16T03:10:41.231Z,1014.46
2017-11-16T03:11:21.624Z,1014.46
2017-11-16T03:12:01.949Z,1014.42
2017-11-16T03:12:42.436Z,1014.46
2017-11-16T03:13:22.913Z,1014.46
2017-11-16T03:14:03.339Z,1014.47
2017-11-16T03:14:43.807Z,1014.49
2017-11-16T03:15:24.234Z,1014.47
2017-11-16T03:16:04.646Z,1014.46
2017-11-16T03:16:44.931Z,1014.5
2017-11-16T03:17:25.408Z,1014.41
2017-11-16T03:18:05.881Z,1014.41
2017-11-16T03:18:46.354Z,1014.46
2017-11-16T03:19:26.749Z,1014.42
2017-11-16T03:20:07.078Z,1014.45
2017-11-16T03:20:47.614Z,1014.44
2017-11-16T03:21:28.137Z,1014.46
2017-11-16T03:22:08.583Z,1014.45
2017-11-16T03:22:48.971Z,1014.56
2017-11-16T03:23:29.344Z,1014.54
2017-11-16T03:24:09.864Z,1014.56
2017-11-16T03:24:50.306Z,1014.6
2017-11-16T03:25:30.673Z,1014.54
2017-11-16T03:26:11.138Z,1014.61
2017-11-16T03:26:51.516Z,1014.65
2017-11-16T03:27:31.993Z,1014.62
2017-11-16T03:28:12.342Z,1014.67
2017-11-16T03:28:52.710Z,1014.66
2017-11-16T03:29:33.216Z,1014.6
2017-11-16T03:30:13.552Z,1014.64
2017-11-16T03:30:54.067Z,1014.68
2017-11-16T03:31:34.397Z,1014.61
2017-11-16T03:32:14.910Z,1014.61
2017-11-16T03:32:55.284Z,1014.57
2017-11-16T03:33:35.633Z,1014.63
2017-11-16T03:34:16.104Z,1014.62
2017-11-16T03:34:56.652Z,1014.64
2017-11-16T03:35:37.003Z,1014.63
2017-11-16T03:36:17.490Z,1014.67
2017-11-16T03:36:57.862Z,1014.65
2017-11-16T03:37:38.316Z,1014.64
2017-11-16T03:38:18.724Z,1014.63
2017-11-16T03:38:59.140Z,1014.63
2017-11-16T03:39:39.584Z,1014.62
2017-11-16T03:40:19.981Z,1014.6
2017-11-16T03:41:00.307Z,1014.59
2017-11-16T03:41:40.860Z,1014.6
2017-11-16T03:42:21.286Z,1014.6
2017-11-16T03:43:01.713Z,1014.59
2017-11-16T03:43:42.066Z,1014.58
2017-11-16T03:44:22.470Z,1014.53
2017-11-16T03:45:02.914Z,1014.56
2017-11-16T03:45:43.249Z,1014.57
2017-11-16T03:46:23.708Z,1014.54
2017-11-16T03:47:04.023Z,1014.54
2017-11-16T03:47:44.430Z,1014.54
2017-11-16T03:48:24.944Z,1014.5
2017-11-16T03:49:05.330Z,1014.48
2017-11-16T03:49:45.715Z,1014.48
2017-11-16T03:50:26.064Z,1014.47
2017-11-16T03:51:06.487Z,1014.48
2017-11-16T03:51:46.939Z,1014.45
2017-11-16T03:52:27.389Z,1014.42
2017-11-16T03:53:07.886Z,1014.42
2017-11-16T03:53:48.260Z,1014.41
2017-11-16T03:54:28.699Z,1014.43
2017-11-16T03:55:09.133Z,1014.39
2017-11-16T03:55:49.493Z,1014.44
2017-11-16T03:56:29.968Z,1014.39
2017-11-16T03:57:10.276Z,1014.43
2017-11-16T03:57:50.978Z,1014.41
2017-11-16T03:58:31.383Z,1014.41
2017-11-16T03:59:11.831Z,1014.43
2017-11-16T03:59:52.229Z,1014.43
2017-11-16T04:00:32.740Z,1014.45
2017-11-16T04:01:13.233Z,1014.46
2017-11-16T04:01:53.450Z,1014.46
2017-11-16T05:10:53.432Z,1013.93
2017-11-16T05:11:34.060Z,1013.92
2017-11-16T05:12:14.456Z,1013.97
2017-11-16T05:12:54.885Z,1013.96
2017-11-16T05:13:35.315Z,1014.01
2017-11-16T05:14:15.682Z,1014.01
2017-11-16T05:14:56.066Z,1014.03
2017-11-16T05:15:36.573Z,1014
2017-11-16T05:16:17.044Z,1013.99
2017-11-16T05:16:57.511Z,1014.01
2017-11-16T05:17:37.936Z,1014.02
2017-11-16T05:18:18.438Z,1014.01
2017-11-16T05:18:58.943Z,1014.01
2017-11-16T05:19:39.343Z,1014.01
2017-11-16T05:20:19.621Z,1013.99
2017-11-16T05:21:00.054Z,1014.04
2017-11-16T05:21:40.583Z,1014.02
2017-11-16T05:22:20.913Z,1013.98
2017-11-16T05:23:01.402Z,1014
2017-11-16T05:23:42.028Z,1013.99
2017-11-16T05:24:22.282Z,1013.99
2017-11-16T05:25:02.792Z,1013.96
2017-11-16T05:25:43.145Z,1014
2017-11-16T05:26:23.513Z,1013.98
2017-11-16T05:27:03.913Z,1013.93
2017-11-16T05:27:44.440Z,1013.93
2017-11-16T05:28:24.733Z,1013.92
2017-11-16T05:29:05.177Z,1013.88
2017-11-16T05:29:45.635Z,1013.9
2017-11-16T05:30:26.110Z,1013.9
2017-11-16T05:31:06.544Z,1013.86
2017-11-16T05:31:46.873Z,1013.86
2017-11-16T05:32:27.399Z,1013.87
2017-11-16T05:33:07.917Z,1013.91
2017-11-16T05:33:48.314Z,1013.9
2017-11-16T05:34:28.670Z,1013.9
2017-11-16T05:35:09.199Z,1013.88
2017-11-16T05:35:49.592Z,1013.87
2017-11-16T05:36:29.969Z,1013.87
2017-11-16T05:37:10.457Z,1013.88
2017-11-16T05:37:50.839Z,1013.9
2017-11-16T05:38:31.581Z,1013.92
2017-11-16T05:39:12.188Z,1013.96
2017-11-16T05:39:52.534Z,1013.93
2017-11-16T05:40:33.172Z,1013.93
2017-11-16T05:41:14.508Z,1013.92
2017-11-16T05:41:54.939Z,1013.94
2017-11-16T05:42:36.578Z,1013.99
2017-11-16T05:43:20.777Z,1013.91
2017-11-16T05:44:01.493Z,1013.9
2017-11-16T05:44:41.925Z,1013.97
2017-11-16T05:45:22.577Z,1013.96
2017-11-16T05:46:03.084Z,1013.95
2017-11-16T05:46:43.444Z,1013.95
2017-11-16T05:47:23.888Z,1013.95
2017-11-16T05:48:04.383Z,1013.95
2017-11-16T05:48:44.834Z,1013.98
2017-11-16T05:49:25.196Z,1014.03
2017-11-16T05:50:05.907Z,1013.98
2017-11-16T05:50:46.306Z,1014.01
2017-11-16T05:51:26.723Z,1014.03
2017-11-16T05:52:07.146Z,1014.02
2017-11-16T05:52:47.548Z,1014.04
2017-11-16T05:53:28.086Z,1014.07
2017-11-16T05:54:08.355Z,1014.06
2017-11-16T05:54:48.910Z,1014.05
2017-11-16T05:55:29.247Z,1014.11
2017-11-16T05:56:09.661Z,1014.06
2017-11-16T05:56:50.114Z,1014.09
2017-11-16T05:57:30.522Z,1014.11
2017-11-16T05:58:10.905Z,1014.1
2017-11-16T05:58:51.968Z,1014.08
2017-11-16T05:59:32.554Z,1014.08
2017-11-16T06:00:12.994Z,1014.07
2017-11-16T06:00:53.478Z,1014.08
2017-11-16T06:01:33.921Z,1014.1
2017-11-16T06:02:14.394Z,1014.12
2017-11-16T06:02:54.826Z,1014.06
2017-11-16T06:03:35.693Z,1014.09
2017-11-16T06:04:16.037Z,1014.11
2017-11-16T06:04:56.605Z,1014.13
2017-11-16T06:05:37.749Z,1014.12
2017-11-16T06:06:17.520Z,1014.12
2017-11-16T06:06:57.933Z,1014.16
2017-11-16T06:07:38.519Z,1014.13
2017-11-16T06:08:18.911Z,1014.12
2017-11-16T06:08:59.712Z,1014.11
2017-11-16T06:09:40.206Z,1014.13
2017-11-16T06:10:20.446Z,1014.08
2017-11-16T06:11:00.909Z,1014.1
2017-11-16T06:11:41.684Z,1014.11
2017-11-16T06:12:22.364Z,1014.07
2017-11-16T06:13:03.020Z,1014.07
2017-11-16T06:13:43.341Z,1014.06
2017-11-16T06:14:23.771Z,1014.05
2017-11-16T06:15:04.310Z,1014.03
2017-11-16T06:15:44.645Z,1014.02
2017-11-16T06:16:25.143Z,1014.01
2017-11-16T06:17:05.700Z,1014.06
2017-11-16T06:17:46.183Z,1014.04
2017-11-16T06:18:26.612Z,1014.02
2017-11-16T06:19:07.037Z,1014.02
2017-11-16T06:19:47.419Z,1014.01
2017-11-16T06:20:27.866Z,1013.99
2017-11-16T06:21:08.457Z,1014.04
2017-11-16T06:21:48.952Z,1014.05
2017-11-16T06:22:29.394Z,1014.03
2017-11-16T06:23:09.841Z,1014.08
2017-11-16T06:23:50.333Z,1014.09
2017-11-16T06:24:30.933Z,1014.11
2017-11-16T06:25:11.411Z,1014.1
2017-11-16T06:25:52.000Z,1014.17
2017-11-16T06:26:32.314Z,1014.12
2017-11-16T06:27:12.824Z,1014.15
2017-11-16T06:27:53.257Z,1014.15
2017-11-16T06:28:33.611Z,1014.18
2017-11-16T06:29:14.091Z,1014.19
2017-11-16T06:29:54.542Z,1014.13
2017-11-16T06:30:34.941Z,1014.15
2017-11-16T06:31:15.514Z,1014.18
2017-11-16T06:31:56.708Z,1014.15
2017-11-16T06:32:37.397Z,1014.2
2017-11-16T06:33:18.089Z,1014.21
2017-11-16T06:33:58.677Z,1014.23
2017-11-16T06:34:39.127Z,1014.26
2017-11-16T06:35:19.591Z,1014.24
2017-11-16T06:36:01.009Z,1014.28
2017-11-16T06:36:40.755Z,1014.26
2017-11-16T06:37:21.366Z,1014.29
2017-11-16T06:38:03.995Z,1014.24
2017-11-16T06:38:44.199Z,1014.24
2017-11-16T06:39:24.664Z,1014.21
2017-11-16T06:40:05.278Z,1014.18
2017-11-16T06:40:45.678Z,1014.22
2017-11-16T06:41:26.111Z,1014.18
2017-11-16T06:42:06.538Z,1014.18
2017-11-16T06:42:47.231Z,1014.14
2017-11-16T06:43:28.534Z,1014.15
2017-11-16T06:44:09.332Z,1014.15
2017-11-16T06:44:50.343Z,1014.18
2017-11-16T06:45:30.645Z,1014.19
2017-11-16T06:46:11.269Z,1014.21
2017-11-16T06:46:52.628Z,1014.22
2017-11-16T06:47:32.406Z,1014.2
2017-11-16T06:48:13.483Z,1014.21
2017-11-16T06:48:53.897Z,1014.22
2017-11-16T06:49:34.320Z,1014.21
2017-11-16T06:50:14.877Z,1014.18
2017-11-16T06:50:55.261Z,1014.23
2017-11-16T06:51:35.743Z,1014.28
2017-11-16T06:52:16.310Z,1014.28
2017-11-16T06:52:56.698Z,1014.29
2017-11-16T06:53:37.078Z,1014.33
2017-11-16T06:54:17.855Z,1014.3
2017-11-16T06:54:58.774Z,1014.3
2017-11-16T06:55:39.354Z,1014.29
2017-11-16T06:56:19.780Z,1014.29
2017-11-16T06:57:00.369Z,1014.32
2017-11-16T06:57:40.878Z,1014.35
2017-11-16T06:58:21.353Z,1014.34
2017-11-16T06:59:02.145Z,1014.34
2017-11-16T06:59:42.465Z,1014.38
2017-11-16T07:00:22.989Z,1014.33
2017-11-16T07:01:03.947Z,1014.38
2017-11-16T07:01:44.494Z,1014.32
2017-11-16T07:02:25.014Z,1014.33
2017-11-16T07:03:05.464Z,1014.31
2017-11-16T07:03:45.994Z,1014.27
2017-11-16T07:04:26.786Z,1014.27
2017-11-16T07:05:07.256Z,1014.24
2017-11-16T07:05:47.600Z,1014.23
2017-11-16T07:06:28.044Z,1014.22
2017-11-16T07:07:08.494Z,1014.26
2017-11-16T07:07:48.943Z,1014.27
2017-11-16T07:08:29.570Z,1014.3
2017-11-16T07:09:10.210Z,1014.28
2017-11-16T07:09:50.420Z,1014.33
2017-11-16T07:10:30.751Z,1014.35
2017-11-16T07:11:11.292Z,1014.31
2017-11-16T07:11:51.644Z,1014.4
2017-11-16T07:12:32.234Z,1014.4
2017-11-16T07:13:12.734Z,1014.43
2017-11-16T07:13:53.074Z,1014.48
2017-11-16T07:14:33.706Z,1014.51
2017-11-16T07:15:14.200Z,1014.51
2017-11-16T07:15:55.508Z,1014.52
2017-11-16T07:16:35.834Z,1014.56
2017-11-16T07:17:17.074Z,1014.56
2017-11-16T07:17:58.009Z,1014.56
2017-11-16T07:18:38.093Z,1014.53
2017-11-16T07:19:18.627Z,1014.55
2017-11-16T07:19:59.145Z,1014.54
2017-11-16T07:20:40.364Z,1014.54
2017-11-16T07:21:21.151Z,1014.5
2017-11-16T07:22:02.503Z,1014.5
2017-11-16T07:22:44.023Z,1014.48
2017-11-16T07:23:24.190Z,1014.52
2017-11-16T07:24:04.847Z,1014.5
2017-11-16T07:24:45.692Z,1014.51
2017-11-16T07:25:26.097Z,1014.51
2017-11-16T07:26:06.604Z,1014.55
2017-11-16T07:26:47.981Z,1014.55
2017-11-16T07:27:30.051Z,1014.53
2017-11-16T07:28:10.226Z,1014.55
2017-11-16T07:28:51.201Z,1014.59
2017-11-16T07:29:31.679Z,1014.57
2017-11-16T07:30:12.125Z,1014.58
2017-11-16T07:30:53.119Z,1014.6
2017-11-16T07:31:33.643Z,1014.57
2017-11-16T07:32:14.334Z,1014.52
2017-11-16T07:32:54.617Z,1014.53
2017-11-16T07:33:35.022Z,1014.53
2017-11-16T07:34:15.738Z,1014.51
2017-11-16T07:34:56.138Z,1014.53
2017-11-16T07:35:36.572Z,1014.57
2017-11-16T07:36:17.292Z,1014.52
2017-11-16T07:36:57.675Z,1014.56
2017-11-16T07:37:38.211Z,1014.55
2017-11-16T07:38:18.720Z,1014.57
2017-11-16T07:38:59.118Z,1014.58
2017-11-16T07:39:39.528Z,1014.62
2017-11-16T07:40:20.000Z,1014.65
2017-11-16T07:41:00.856Z,1014.68
2017-11-16T07:41:41.269Z,1014.65
2017-11-16T07:42:21.620Z,1014.67
2017-11-16T07:43:02.113Z,1014.67
2017-11-16T07:43:42.660Z,1014.65
2017-11-16T07:44:23.199Z,1014.66
2017-11-16T07:45:03.544Z,1014.61
2017-11-16T07:45:44.067Z,1014.6
2017-11-16T07:46:24.563Z,1014.62
2017-11-16T07:47:05.032Z,1014.6
2017-11-16T07:47:45.396Z,1014.59
2017-11-16T07:48:25.883Z,1014.6
2017-11-16T07:49:06.359Z,1014.62
2017-11-16T07:49:46.809Z,1014.6
2017-11-16T07:50:27.339Z,1014.59
2017-11-16T07:51:07.825Z,1014.61
2017-11-16T07:51:48.541Z,1014.62
2017-11-16T07:57:55.426Z,1014.65
2017-11-16T07:58:35.969Z,1014.64
2017-11-16T07:59:16.310Z,1014.65
2017-11-16T07:59:56.847Z,1014.71
2017-11-16T08:00:37.337Z,1014.71
2017-11-16T08:01:17.786Z,1014.73
2017-11-16T08:01:58.943Z,1014.71
2017-11-16T08:02:39.323Z,1014.72
2017-11-16T08:03:19.866Z,1014.71
2017-11-16T08:04:00.434Z,1014.68
2017-11-16T08:04:40.995Z,1014.74
2017-11-16T08:05:21.483Z,1014.69
2017-11-16T08:06:02.039Z,1014.67
2017-11-16T08:06:43.296Z,1014.73
2017-11-16T08:07:23.859Z,1014.72
2017-11-16T08:08:04.393Z,1014.73
2017-11-16T08:08:44.944Z,1014.72
2017-11-16T08:09:25.295Z,1014.67
2017-11-16T08:10:05.951Z,1014.69
2017-11-16T08:10:46.598Z,1014.65
2017-11-16T08:11:27.162Z,1014.67
2017-11-16T08:12:07.423Z,1014.67
2017-11-16T08:12:47.868Z,1014.72
2017-11-16T08:13:28.683Z,1014.74
2017-11-16T08:14:08.976Z,1014.75
2017-11-16T08:14:49.491Z,1014.8
2017-11-16T08:15:29.999Z,1014.85
2017-11-16T08:16:10.379Z,1014.84
2017-11-16T08:16:50.797Z,1014.84
2017-11-16T08:17:31.349Z,1014.93
2017-11-16T08:18:11.965Z,1014.93
2017-11-16T08:18:52.357Z,1014.95
2017-11-16T08:19:33.801Z,1014.93
2017-11-16T08:20:13.213Z,1014.96
2017-11-16T08:20:53.768Z,1014.98
2017-11-16T08:21:34.465Z,1014.97
2017-11-16T08:22:14.851Z,1014.95
2017-11-16T08:22:55.292Z,1015
2017-11-16T08:23:35.948Z,1014.94
2017-11-16T08:24:16.573Z,1014.97
2017-11-16T08:24:58.825Z,1014.98
2017-11-16T08:25:39.157Z,1014.98
2017-11-16T08:26:20.428Z,1014.98
2017-11-16T08:27:03.873Z,1014.99
2017-11-16T08:27:45.328Z,1015.04
2017-11-16T08:28:26.074Z,1015.04
2017-11-16T08:29:06.831Z,1015.04
2017-11-16T08:29:47.534Z,1015.05
2017-11-16T08:30:28.037Z,1015.04
2017-11-16T08:31:08.542Z,1015.06
2017-11-16T08:31:49.183Z,1015.02
2017-11-16T08:32:30.206Z,1015.09
2017-11-16T08:33:11.223Z,1015.07
2017-11-16T08:33:52.220Z,1015.13
2017-11-16T08:34:33.654Z,1015.11
2017-11-16T08:35:13.103Z,1015.08
2017-11-16T08:35:53.644Z,1015.1
2017-11-16T08:36:34.212Z,1015.11
2017-11-16T08:37:17.192Z,1015.1
2017-11-16T08:37:58.158Z,1015.11
2017-11-16T08:38:38.319Z,1015.1
2017-11-16T08:39:18.816Z,1015.11
2017-11-16T08:39:59.569Z,1015.06
2017-11-16T08:40:40.158Z,1015.07
2017-11-16T08:41:20.422Z,1015.08
2017-11-16T08:42:00.928Z,1015.04
2017-11-16T08:42:41.819Z,1015.05
2017-11-16T08:43:22.287Z,1015.05
2017-11-16T08:44:02.671Z,1015.07
2017-11-16T08:44:43.441Z,1015.04
2017-11-16T08:45:23.939Z,1015.06
2017-11-16T08:46:04.492Z,1015.01
2017-11-16T08:46:45.262Z,1015.07
2017-11-16T08:47:26.594Z,1015.08
2017-11-16T08:48:07.728Z,1015.05
2017-11-16T08:48:48.343Z,1015.04
2017-11-16T08:49:28.752Z,1015.09
2017-11-16T08:50:09.070Z,1015.1
2017-11-16T08:50:49.537Z,1015.08
2017-11-16T08:51:30.272Z,1015.1
2017-11-16T08:52:10.736Z,1015.11
2017-11-16T08:52:51.351Z,1015.11
2017-11-16T08:53:31.785Z,1015.1
2017-11-16T08:54:12.730Z,1015.08
2017-11-16T08:54:53.101Z,1015.1
2017-11-16T08:55:33.802Z,1015.11
2017-11-16T08:56:14.160Z,1015.13
2017-11-16T08:56:54.756Z,1015.1
2017-11-16T08:57:35.311Z,1015.14
2017-11-16T08:58:15.661Z,1015.14
2017-11-16T08:58:56.576Z,1015.16
2017-11-16T08:59:36.938Z,1015.16
2017-11-16T09:00:17.456Z,1015.14
2017-11-16T09:00:58.067Z,1015.15
2017-11-16T09:01:38.472Z,1015.17
2017-11-16T09:02:19.053Z,1015.2
2017-11-16T09:02:59.954Z,1015.21
2017-11-16T09:03:40.433Z,1015.23
2017-11-16T09:04:20.948Z,1015.23
2017-11-16T09:11:17.128Z,1015.14
2017-11-16T09:11:57.476Z,1015.13
2017-11-16T09:12:37.950Z,1015.11
2017-11-16T09:13:18.456Z,1015.09
2017-11-16T09:13:58.816Z,1015.07
2017-11-16T09:14:39.364Z,1015.03
2017-11-16T09:15:19.715Z,1015.05
2017-11-16T09:16:00.171Z,1015.09
2017-11-16T09:16:40.521Z,1015.08
2017-11-16T09:17:20.973Z,1015.02
2017-11-16T09:18:01.512Z,1015.03
2017-11-16T09:18:42.063Z,1015.05
2017-11-16T09:19:23.639Z,1015.01
2017-11-16T09:20:03.941Z,1015.01
2017-11-16T09:20:44.478Z,1015.04
2017-11-16T09:21:24.901Z,1015.03
2017-11-16T09:22:07.185Z,1015.02
2017-11-16T09:22:47.669Z,1015.03
2017-11-16T09:23:28.020Z,1015.01
2017-11-16T09:24:09.622Z,1015.07
2017-11-16T09:24:51.097Z,1015.05
2017-11-16T09:25:31.289Z,1015.04
2017-11-16T09:26:11.925Z,1015.03
2017-11-16T09:26:53.546Z,1015.04
2017-11-16T09:27:34.553Z,1015.03
2017-11-16T09:28:16.344Z,1015.04
2017-11-16T09:28:57.549Z,1015.03
2017-11-16T09:29:37.653Z,1015.06
2017-11-16T09:30:18.371Z,1015.01
2017-11-16T09:30:58.851Z,1015.01
2017-11-16T09:31:39.366Z,1015.03
2017-11-16T09:32:19.957Z,1015.06